Terminal Aerodrome Forecast
Issued by NWS Sterling, VA

Current Version | Previous Version | Text Only | Print | Product List | Glossary On
Versions: 1 2 3 4 5 6 7 8 9 10 11 12 13 14 15 16 17 18 19 20 21 22 23 24 25 26 27
000
FTUS41 KLWX 041447 AAA
TAFBWI
TAF AMD
KBWI 041447Z 0415/0518 24007KT 5SM -SHRA BR SCT007 OVC050
     FM041600 25005KT 3SM -RA OVC040
     FM042100 VRB03KT 3SM -RA OVC015
     FM050500 36005KT 1SM -RAPL BR OVC008
     FM050900 34007KT 1SM -SNPL BR OVC006
     FM051200 35010KT 1/2SM SN OVC004=

USA.gov is the U.S. government's official web portal to all federal, state and local government web resources and services.